createdAt,value
2022-10-09T00:01:03.902Z,100.00
2022-10-09T00:03:31.794Z,100.00
2022-10-09T00:06:01.048Z,100.00
2022-10-09T00:08:29.247Z,100.00
2022-10-09T00:10:57.705Z,100.00
2022-10-09T00:13:25.786Z,100.00
2022-10-09T00:15:53.615Z,100.00
2022-10-09T00:18:21.415Z,100.00
2022-10-09T00:20:49.267Z,100.00
2022-10-09T00:23:18.544Z,100.00
2022-10-09T00:25:54.479Z,100.00
2022-10-09T00:28:22.798Z,100.00
2022-10-09T00:30:50.847Z,100.00
2022-10-09T00:33:19.035Z,100.00
2022-10-09T00:35:47.575Z,100.00
2022-10-09T00:38:15.879Z,100.00
2022-10-09T00:40:45.214Z,100.00
2022-10-09T00:43:17.112Z,100.00
2022-10-09T00:45:49.043Z,100.00
2022-10-09T00:48:19.606Z,100.00
2022-10-09T00:50:51.562Z,100.00
2022-10-09T00:53:22.131Z,100.00
2022-10-09T00:55:52.410Z,100.00
2022-10-09T00:58:22.695Z,100.00
2022-10-09T01:00:50.853Z,100.00
2022-10-09T01:03:18.714Z,100.00
2022-10-09T01:05:54.996Z,100.00
2022-10-09T01:08:29.082Z,100.00
2022-10-09T01:11:05.001Z,100.00
2022-10-09T01:13:37.189Z,100.00
2022-10-09T01:16:10.303Z,100.00
2022-10-09T01:18:44.720Z,100.00
2022-10-09T01:21:17.009Z,100.00
2022-10-09T01:23:57.491Z,100.00
2022-10-09T01:26:36.451Z,100.00
2022-10-09T01:29:08.395Z,100.00
2022-10-09T01:31:41.109Z,100.00
2022-10-09T01:34:11.315Z,100.00
2022-10-09T01:36:40.737Z,100.00
2022-10-09T01:39:12.635Z,100.00
2022-10-09T01:41:40.493Z,100.00
2022-10-09T01:44:18.292Z,100.00
2022-10-09T01:46:46.898Z,100.00
2022-10-09T01:49:34.538Z,100.00
2022-10-09T01:52:12.474Z,100.00
2022-10-09T01:54:49.486Z,100.00
2022-10-09T01:57:24.252Z,100.00
2022-10-09T01:59:55.360Z,100.00
2022-10-09T02:02:23.807Z,100.00
2022-10-09T02:04:51.923Z,100.00
2022-10-09T02:07:20.101Z,100.00
2022-10-09T02:09:48.507Z,100.00
2022-10-09T02:12:19.471Z,100.00
2022-10-09T02:14:47.326Z,100.00
2022-10-09T02:17:23.137Z,100.00
2022-10-09T02:19:53.306Z,100.00
2022-10-09T02:22:25.590Z,100.00
2022-10-09T02:24:53.713Z,100.00
2022-10-09T02:27:23.216Z,100.00
2022-10-09T02:29:51.673Z,100.00
2022-10-09T02:32:21.179Z,100.00
2022-10-09T02:34:49.102Z,100.00
2022-10-09T02:37:16.968Z,100.00
2022-10-09T02:39:44.802Z,100.00
2022-10-09T02:42:12.918Z,100.00
2022-10-09T02:44:40.707Z,100.00
2022-10-09T02:47:08.522Z,100.00
2022-10-09T02:49:37.720Z,100.00
2022-10-09T02:52:05.738Z,100.00
2022-10-09T02:54:33.525Z,100.00
2022-10-09T02:57:01.466Z,100.00
2022-10-09T02:59:29.243Z,100.00
2022-10-09T03:01:57.100Z,100.00
2022-10-09T03:04:24.983Z,100.00
2022-10-09T03:06:54.130Z,100.00
2022-10-09T03:09:21.922Z,100.00
2022-10-09T03:11:49.730Z,100.00
2022-10-09T03:14:17.505Z,100.00
2022-10-09T03:16:45.349Z,100.00
2022-10-09T03:19:13.267Z,100.00
2022-10-09T03:21:41.043Z,100.00
2022-10-09T03:24:11.097Z,100.00
2022-10-09T03:26:38.954Z,100.00
2022-10-09T03:29:06.749Z,100.00
2022-10-09T03:34:22.419Z,100.00
2022-10-09T03:36:50.318Z,100.00
2022-10-09T03:39:19.457Z,100.00
2022-10-09T03:41:47.290Z,100.00
2022-10-09T03:44:15.106Z,100.00
2022-10-09T03:46:42.951Z,100.00
2022-10-09T03:49:10.838Z,100.00
2022-10-09T03:51:38.626Z,100.00
2022-10-09T03:54:07.034Z,100.00
2022-10-09T03:56:36.263Z,100.00
2022-10-09T03:59:05.658Z,100.00
2022-10-09T04:01:33.462Z,100.00
2022-10-09T04:04:01.334Z,100.00
2022-10-09T04:06:29.333Z,100.00
2022-10-09T04:08:57.360Z,100.00
2022-10-09T04:11:25.213Z,100.00
2022-10-09T04:13:54.383Z,100.00
2022-10-09T04:16:22.218Z,100.00
2022-10-09T04:18:50.108Z,100.00
2022-10-09T04:21:17.990Z,100.00
2022-10-09T04:23:45.913Z,100.00
2022-10-09T04:26:14.334Z,100.00
2022-10-09T04:28:42.207Z,100.00
2022-10-09T04:31:11.520Z,100.00
2022-10-09T04:33:39.460Z,100.00
2022-10-09T04:36:07.814Z,100.00
2022-10-09T04:38:35.756Z,100.00
2022-10-09T04:41:06.381Z,100.00
2022-10-09T04:43:35.444Z,100.00
2022-10-09T04:46:06.073Z,100.00
2022-10-09T04:48:40.182Z,100.00
2022-10-09T04:51:08.586Z,100.00
2022-10-09T04:53:37.566Z,100.00
2022-10-09T04:56:06.562Z,100.00
2022-10-09T04:58:36.475Z,100.00
2022-10-09T05:01:09.805Z,100.00
2022-10-09T05:03:39.119Z,100.00
2022-10-09T05:06:10.041Z,100.00
2022-10-09T05:08:38.821Z,100.00
2022-10-09T05:11:09.409Z,100.00
2022-10-09T05:13:39.409Z,100.00
2022-10-09T05:16:10.257Z,100.00
2022-10-09T05:18:44.147Z,100.00
2022-10-09T05:21:12.075Z,100.00
2022-10-09T05:23:40.132Z,100.00
2022-10-09T05:26:09.761Z,100.00
2022-10-09T05:28:37.678Z,100.00
2022-10-09T05:31:05.987Z,100.00
2022-10-09T05:33:34.338Z,100.00
2022-10-09T05:36:05.908Z,100.00
2022-10-09T05:38:34.736Z,100.00
2022-10-09T05:41:05.184Z,100.00
2022-10-09T05:43:34.632Z,100.00
2022-10-09T05:46:07.214Z,100.00
2022-10-09T05:48:35.234Z,100.00
2022-10-09T05:51:15.875Z,100.00
2022-10-09T05:53:45.221Z,100.00
2022-10-09T05:56:19.004Z,100.00
2022-10-09T05:58:51.141Z,100.00
2022-10-09T06:01:19.514Z,100.00
2022-10-09T06:03:50.817Z,100.00
2022-10-09T06:06:21.852Z,100.00
2022-10-09T06:08:49.991Z,100.00
2022-10-09T06:11:19.697Z,100.00
2022-10-09T06:13:48.110Z,100.00
2022-10-09T06:16:17.781Z,100.00
2022-10-09T06:18:49.242Z,100.00
2022-10-09T06:21:17.701Z,100.00
2022-10-09T06:23:50.703Z,100.00
2022-10-09T06:26:19.688Z,100.00
2022-10-09T06:28:48.644Z,100.00
2022-10-09T06:31:19.319Z,100.00
2022-10-09T06:33:49.120Z,100.00
2022-10-09T06:36:19.644Z,100.00
2022-10-09T06:38:49.147Z,100.00
2022-10-09T06:41:18.641Z,100.00
2022-10-09T06:43:51.470Z,100.00
2022-10-09T06:46:21.111Z,100.00
2022-10-09T06:48:49.333Z,100.00
2022-10-09T06:51:18.908Z,100.00
2022-10-09T06:53:49.994Z,100.00
2022-10-09T06:56:19.556Z,100.00
2022-10-09T06:58:47.849Z,100.00
2022-10-09T07:01:17.717Z,100.00
2022-10-09T07:03:47.746Z,100.00
2022-10-09T07:06:18.086Z,100.00
2022-10-09T07:08:48.661Z,100.00
2022-10-09T07:11:20.931Z,100.00
2022-10-09T07:13:50.100Z,100.00
2022-10-09T07:16:21.767Z,100.00
2022-10-09T07:18:49.770Z,100.00
2022-10-09T07:21:17.604Z,100.00
2022-10-09T07:23:45.576Z,100.00
2022-10-09T07:26:18.022Z,100.00
2022-10-09T07:28:46.837Z,100.00
2022-10-09T07:31:15.613Z,100.00
2022-10-09T07:33:43.494Z,100.00
2022-10-09T07:36:11.975Z,100.00
2022-10-09T07:38:39.854Z,100.00
2022-10-09T07:41:10.045Z,100.00
2022-10-09T07:43:41.052Z,93.82
2022-10-09T07:46:12.514Z,92.22
2022-10-09T07:48:40.618Z,89.36
2022-10-09T07:51:10.366Z,89.71
2022-10-09T07:53:39.051Z,90.80
2022-10-09T07:56:07.992Z,91.21
2022-10-09T07:58:35.840Z,88.91
2022-10-09T08:01:09.028Z,90.26
2022-10-09T08:03:37.339Z,90.96
2022-10-09T08:06:05.421Z,88.87
2022-10-09T08:08:33.911Z,86.55
2022-10-09T08:11:01.742Z,89.15
2022-10-09T08:13:29.595Z,87.75
2022-10-09T08:15:59.705Z,89.22
2022-10-09T08:18:28.891Z,89.22
2022-10-09T08:21:00.287Z,81.59
2022-10-09T08:23:28.074Z,80.02
2022-10-09T08:25:56.445Z,77.48
2022-10-09T08:28:24.721Z,76.97
2022-10-09T08:30:52.799Z,79.69
2022-10-09T08:33:22.148Z,79.32
2022-10-09T08:35:51.874Z,80.98
2022-10-09T08:38:44.849Z,79.20
2022-10-09T08:41:12.561Z,80.60
2022-10-09T08:43:45.336Z,78.80
2022-10-09T08:46:21.821Z,78.57
2022-10-09T08:48:51.472Z,81.97
2022-10-09T08:51:24.854Z,77.15
2022-10-09T08:53:58.969Z,76.27
2022-10-09T08:56:28.190Z,76.47
2022-10-09T08:58:57.011Z,77.27
2022-10-09T09:01:35.568Z,73.34
2022-10-09T09:04:37.003Z,72.82
2022-10-09T09:07:14.884Z,72.25
2022-10-09T09:09:50.674Z,72.25
2022-10-09T09:12:27.524Z,71.95
2022-10-09T09:15:10.699Z,70.14
2022-10-09T09:17:44.869Z,69.45
2022-10-09T09:20:17.262Z,68.57
2022-10-09T09:22:49.223Z,70.08
2022-10-09T09:25:23.686Z,69.04
2022-10-09T09:27:54.554Z,69.58
2022-10-09T09:30:25.658Z,70.10
2022-10-09T09:33:02.414Z,71.25
2022-10-09T09:35:37.036Z,70.00
2022-10-09T09:38:06.243Z,69.79
2022-10-09T09:40:37.605Z,70.29
2022-10-09T09:43:16.611Z,70.97
2022-10-09T09:45:45.887Z,69.40
2022-10-09T09:48:18.389Z,71.95
2022-10-09T09:50:53.079Z,71.55
2022-10-09T09:53:33.933Z,70.95
2022-10-09T09:56:02.095Z,69.99
2022-10-09T09:58:35.227Z,69.66
2022-10-09T10:01:06.482Z,68.42
2022-10-09T10:03:35.969Z,65.33
2022-10-09T10:06:04.004Z,65.89
2022-10-09T10:08:35.176Z,64.65
2022-10-09T10:11:07.326Z,63.79
2022-10-09T10:13:38.401Z,65.74
2022-10-09T10:16:08.672Z,64.67
2022-10-09T10:18:40.474Z,63.97
2022-10-09T10:21:12.682Z,64.64
2022-10-09T10:23:45.266Z,64.90
2022-10-09T10:26:23.845Z,61.98
2022-10-09T10:28:57.842Z,61.85
2022-10-09T10:31:38.359Z,61.27
2022-10-09T10:34:15.113Z,60.04
2022-10-09T10:36:42.952Z,60.04
2022-10-09T10:39:19.050Z,60.38
2022-10-09T10:41:50.832Z,58.70
2022-10-09T10:44:24.234Z,58.77
2022-10-09T10:46:55.849Z,59.23
2022-10-09T10:49:24.382Z,59.40
2022-10-09T10:52:05.352Z,59.03
2022-10-09T10:54:41.027Z,58.96
2022-10-09T10:57:15.496Z,57.69
2022-10-09T10:59:53.512Z,56.22
2022-10-09T11:02:41.212Z,57.52
2022-10-09T11:05:31.119Z,54.93
2022-10-09T11:08:29.244Z,57.42
2022-10-09T11:11:06.044Z,54.94
2022-10-09T11:13:39.518Z,53.45
2022-10-09T11:16:20.103Z,53.84
2022-10-09T11:19:00.603Z,53.60
2022-10-09T11:21:43.535Z,53.44
2022-10-09T11:24:34.178Z,51.90
2022-10-09T11:27:13.272Z,52.74
2022-10-09T11:29:44.718Z,52.01
2022-10-09T11:32:18.383Z,54.51
2022-10-09T11:34:51.154Z,51.77
2022-10-09T11:37:26.266Z,52.76
2022-10-09T11:39:54.079Z,53.42
2022-10-09T11:42:26.571Z,54.11
2022-10-09T11:45:10.023Z,56.06
2022-10-09T11:47:45.577Z,56.19
2022-10-09T11:50:37.733Z,55.95
2022-10-09T11:53:10.654Z,55.98
2022-10-09T11:55:39.042Z,55.24
2022-10-09T11:58:23.117Z,54.06
2022-10-09T12:00:54.022Z,53.35
2022-10-09T12:03:33.514Z,55.16
2022-10-09T12:06:08.669Z,56.24
2022-10-09T12:08:37.555Z,55.14
2022-10-09T12:11:15.209Z,54.51
2022-10-09T12:13:52.498Z,54.65
2022-10-09T12:16:36.810Z,54.81
2022-10-09T12:19:07.411Z,54.43
2022-10-09T12:21:41.144Z,54.86
2022-10-09T12:24:16.604Z,53.60
2022-10-09T12:26:44.792Z,53.33
2022-10-09T12:29:22.378Z,52.79
2022-10-09T12:31:53.813Z,54.15
2022-10-09T12:34:25.857Z,53.62
2022-10-09T12:37:04.706Z,51.18
2022-10-09T12:39:33.819Z,53.51
2022-10-09T12:42:01.940Z,52.09
2022-10-09T12:44:33.998Z,52.54
2022-10-09T12:47:06.052Z,53.74
2022-10-09T12:49:34.120Z,52.81
2022-10-09T12:52:02.731Z,51.79
2022-10-09T12:54:31.984Z,51.08
2022-10-09T12:57:01.783Z,51.18
2022-10-09T12:59:31.306Z,51.87
2022-10-09T13:02:00.484Z,53.55
2022-10-09T13:04:31.026Z,51.75
2022-10-09T13:07:00.425Z,52.92
2022-10-09T13:09:33.837Z,52.24
2022-10-09T13:12:07.042Z,52.12
2022-10-09T13:14:43.081Z,53.52
2022-10-09T13:17:25.036Z,53.05
2022-10-09T13:19:54.882Z,50.69
2022-10-09T13:22:24.272Z,52.64
2022-10-09T13:24:54.193Z,49.68
2022-10-09T13:27:24.248Z,50.25
2022-10-09T13:29:54.009Z,50.18
2022-10-09T13:32:23.867Z,51.13
2022-10-09T13:34:54.947Z,49.73
2022-10-09T13:37:24.651Z,50.42
2022-10-09T13:39:53.333Z,49.22
2022-10-09T13:42:23.025Z,51.53
2022-10-09T13:44:50.862Z,51.78
2022-10-09T13:47:24.191Z,49.68
2022-10-09T13:49:52.551Z,51.33
2022-10-09T13:52:20.438Z,50.03
2022-10-09T13:54:48.286Z,49.02
2022-10-09T13:57:16.123Z,50.41
2022-10-09T13:59:44.053Z,50.47
2022-10-09T14:02:12.622Z,49.22
2022-10-09T14:04:42.131Z,49.03
2022-10-09T14:07:09.997Z,47.59
2022-10-09T14:09:37.991Z,48.87
2022-10-09T14:12:05.898Z,49.99
2022-10-09T14:14:33.826Z,51.40
2022-10-09T14:17:01.638Z,51.88
2022-10-09T14:19:29.498Z,51.49
2022-10-09T14:21:59.213Z,52.98
2022-10-09T14:24:27.090Z,51.71
2022-10-09T14:26:54.888Z,52.39
2022-10-09T14:29:22.739Z,53.05
2022-10-09T14:31:51.215Z,52.96
2022-10-09T14:34:19.297Z,53.53
2022-10-09T14:36:47.308Z,53.83
2022-10-09T14:39:16.794Z,53.58
2022-10-09T14:41:44.601Z,54.40
2022-10-09T14:44:12.460Z,53.65
2022-10-09T14:46:40.267Z,54.36
2022-10-09T14:49:09.579Z,54.70
2022-10-09T14:51:39.247Z,54.30
2022-10-09T14:54:07.978Z,54.52
2022-10-09T14:56:37.222Z,55.14
2022-10-09T14:59:06.372Z,55.14
2022-10-09T15:01:35.265Z,56.19
2022-10-09T15:04:03.127Z,56.83
2022-10-09T15:06:32.972Z,57.12
2022-10-09T15:09:05.378Z,57.71
2022-10-09T15:11:34.460Z,56.21
2022-10-09T15:14:04.363Z,56.72
2022-10-09T15:16:32.353Z,56.17
2022-10-09T15:19:00.438Z,55.69
2022-10-09T15:21:31.025Z,55.82
2022-10-09T15:24:00.406Z,57.14
2022-10-09T15:26:29.975Z,56.66
2022-10-09T15:28:57.840Z,57.03
2022-10-09T15:31:29.176Z,57.82
2022-10-09T15:33:58.639Z,57.67
2022-10-09T15:36:26.483Z,57.95
2022-10-09T15:38:54.338Z,59.21
2022-10-09T15:41:24.173Z,59.54
2022-10-09T15:43:53.173Z,59.10
2022-10-09T15:46:21.200Z,60.98
2022-10-09T15:48:51.069Z,61.32
2022-10-09T15:51:19.873Z,62.13
2022-10-09T15:53:49.993Z,61.95
2022-10-09T15:56:20.696Z,63.14
2022-10-09T15:58:48.541Z,63.68
2022-10-09T16:01:18.026Z,64.69
2022-10-09T16:03:46.510Z,65.39
2022-10-09T16:06:19.429Z,66.34
2022-10-09T16:08:48.246Z,66.40
2022-10-09T16:11:20.173Z,67.37
2022-10-09T16:13:51.078Z,68.05
2022-10-09T16:16:21.795Z,68.26
2022-10-09T16:18:49.688Z,68.84
2022-10-09T16:21:21.205Z,69.68
2022-10-09T16:23:50.182Z,70.02
2022-10-09T16:26:23.529Z,69.92
2022-10-09T16:28:52.410Z,70.78
2022-10-09T16:31:21.915Z,70.02
2022-10-09T16:33:49.844Z,70.25
2022-10-09T16:36:19.765Z,70.62
2022-10-09T16:38:48.171Z,69.87
2022-10-09T16:41:18.501Z,71.01
2022-10-09T16:43:47.399Z,71.12
2022-10-09T16:46:20.238Z,71.56
2022-10-09T16:48:49.373Z,72.02
2022-10-09T16:51:20.197Z,73.24
2022-10-09T16:53:50.237Z,72.74
2022-10-09T16:56:20.877Z,73.41
2022-10-09T16:58:48.841Z,73.54
2022-10-09T17:01:17.359Z,73.52
2022-10-09T17:03:45.344Z,74.12
2022-10-09T17:06:15.606Z,75.31
2022-10-09T17:08:44.757Z,75.24
2022-10-09T17:11:14.958Z,75.46
2022-10-09T17:13:42.778Z,75.28
2022-10-09T17:16:17.858Z,75.38
2022-10-09T17:18:46.898Z,75.98
2022-10-09T17:21:16.277Z,75.94
2022-10-09T17:23:46.528Z,76.08
2022-10-09T17:26:16.745Z,76.91
2022-10-09T17:28:45.553Z,76.76
2022-10-09T17:31:15.638Z,76.57
2022-10-09T17:33:46.118Z,77.00
2022-10-09T17:36:16.171Z,76.94
2022-10-09T17:38:45.532Z,77.25
2022-10-09T17:41:15.692Z,78.50
2022-10-09T17:43:43.530Z,78.29
2022-10-09T17:46:11.431Z,79.34
2022-10-09T17:48:44.256Z,78.03
2022-10-09T17:51:17.079Z,78.47
2022-10-09T17:53:46.548Z,77.91
2022-10-09T17:56:15.598Z,76.58
2022-10-09T17:58:47.349Z,76.74
2022-10-09T18:01:16.304Z,77.22
2022-10-09T18:03:45.324Z,78.30
2022-10-09T18:06:15.856Z,78.04
2022-10-09T18:08:44.418Z,77.98
2022-10-09T18:11:15.628Z,77.63
2022-10-09T18:13:44.730Z,77.77
2022-10-09T18:16:14.545Z,78.38
2022-10-09T18:18:42.636Z,77.98
2022-10-09T18:21:12.543Z,77.58
2022-10-09T18:23:41.186Z,78.07
2022-10-09T18:26:10.091Z,77.94
2022-10-09T18:28:39.537Z,77.90
2022-10-09T18:31:07.634Z,78.15
2022-10-09T18:33:35.795Z,77.29
2022-10-09T18:36:05.899Z,77.98
2022-10-09T18:38:34.612Z,77.60
2022-10-09T18:41:02.803Z,77.61
2022-10-09T18:43:30.617Z,77.60
2022-10-09T18:46:00.772Z,77.66
2022-10-09T18:48:30.821Z,78.21
2022-10-09T18:50:59.584Z,79.11
2022-10-09T18:53:27.702Z,79.63
2022-10-09T18:55:55.860Z,79.68
2022-10-09T18:58:23.894Z,79.17
2022-10-09T19:00:51.718Z,79.71
2022-10-09T19:03:20.978Z,81.03
2022-10-09T19:05:48.843Z,80.93
2022-10-09T19:08:16.756Z,80.76
2022-10-09T19:10:50.521Z,81.06
2022-10-09T19:13:18.627Z,81.21
2022-10-09T19:15:51.712Z,81.01
2022-10-09T19:18:21.458Z,81.78
2022-10-09T19:20:49.767Z,80.91
2022-10-09T19:23:18.413Z,81.70
2022-10-09T19:25:48.056Z,82.02
2022-10-09T19:28:16.041Z,82.06
2022-10-09T19:30:44.829Z,81.75
2022-10-09T19:33:13.267Z,82.20
2022-10-09T19:35:50.629Z,81.60
2022-10-09T19:38:18.769Z,81.44
2022-10-09T19:40:46.953Z,81.60
2022-10-09T19:43:16.014Z,81.27
2022-10-09T19:45:44.301Z,81.80
2022-10-09T19:48:12.136Z,81.03
2022-10-09T19:50:41.587Z,80.88
2022-10-09T19:53:10.944Z,79.71
2022-10-09T19:55:39.199Z,79.57
2022-10-09T19:58:07.649Z,78.94
2022-10-09T20:00:35.601Z,78.60
2022-10-09T20:03:03.414Z,78.34
2022-10-09T20:05:31.211Z,79.30
2022-10-09T20:07:59.140Z,78.95
2022-10-09T20:10:28.501Z,78.85
2022-10-09T20:12:56.355Z,79.05
2022-10-09T20:15:24.179Z,79.40
2022-10-09T20:17:52.608Z,80.25
2022-10-09T20:20:20.504Z,78.89
2022-10-09T20:22:48.521Z,79.49
2022-10-09T20:25:17.878Z,79.76
2022-10-09T20:27:47.074Z,79.58
2022-10-09T20:30:15.178Z,78.34
2022-10-09T20:32:42.989Z,79.25
2022-10-09T20:35:11.009Z,78.18
2022-10-09T20:37:38.907Z,78.21
2022-10-09T20:40:07.736Z,77.23
2022-10-09T20:42:35.578Z,78.46
2022-10-09T20:45:05.298Z,78.18
2022-10-09T20:47:33.465Z,77.58
2022-10-09T20:50:01.359Z,79.03
2022-10-09T20:52:29.163Z,79.23
2022-10-09T20:54:56.943Z,79.29
2022-10-09T20:57:25.454Z,79.46
2022-10-09T20:59:53.245Z,79.82
2022-10-09T21:02:22.388Z,79.16
2022-10-09T21:04:50.263Z,80.15
2022-10-09T21:07:18.093Z,81.06
2022-10-09T21:09:46.177Z,80.43
2022-10-09T21:12:14.038Z,81.33
2022-10-09T21:14:41.824Z,81.11
2022-10-09T21:17:09.604Z,81.42
2022-10-09T21:19:38.774Z,81.71
2022-10-09T21:22:06.623Z,81.09
2022-10-09T21:24:34.419Z,81.45
2022-10-09T21:27:02.270Z,82.29
2022-10-09T21:29:30.047Z,82.35
2022-10-09T21:31:57.846Z,81.33
2022-10-09T21:34:25.661Z,82.22
2022-10-09T21:37:19.719Z,82.10
2022-10-09T21:39:43.913Z,81.76
2022-10-09T21:42:11.685Z,81.46
2022-10-09T21:44:39.445Z,82.08
2022-10-09T21:47:07.297Z,81.62
2022-10-09T21:49:35.211Z,82.26
2022-10-09T21:52:04.360Z,81.38
2022-10-09T21:54:32.210Z,82.33
2022-10-09T21:56:59.999Z,82.54
2022-10-09T21:59:28.096Z,82.28
2022-10-09T22:01:55.943Z,83.05
2022-10-09T22:04:23.851Z,82.85
2022-10-09T22:06:51.619Z,84.37
2022-10-09T22:09:20.896Z,83.96
2022-10-09T22:11:48.743Z,83.87
2022-10-09T22:14:16.602Z,83.78
2022-10-09T22:16:44.459Z,83.60
2022-10-09T22:19:12.349Z,84.36
2022-10-09T22:21:40.174Z,83.58
2022-10-09T22:24:08.111Z,83.78
2022-10-09T22:26:37.515Z,83.90
2022-10-09T22:29:05.322Z,84.20
2022-10-09T22:31:33.172Z,83.91
2022-10-09T22:34:03.545Z,84.33
2022-10-09T22:36:33.899Z,83.81
2022-10-09T22:39:04.763Z,83.55
2022-10-09T22:41:34.127Z,84.89
2022-10-09T22:44:05.118Z,85.97
2022-10-09T22:46:35.222Z,85.97
2022-10-09T22:49:03.182Z,85.67
2022-10-09T22:51:31.812Z,86.66
2022-10-09T22:54:00.730Z,86.29
2022-10-09T22:56:32.019Z,87.39
2022-10-09T22:58:59.974Z,86.64
2022-10-09T23:01:32.529Z,87.86
2022-10-09T23:04:03.290Z,87.38
2022-10-09T23:06:31.228Z,88.58
2022-10-09T23:08:59.396Z,87.76
2022-10-09T23:11:27.659Z,88.19
2022-10-09T23:13:56.782Z,87.38
2022-10-09T23:16:25.670Z,87.31
2022-10-09T23:18:57.821Z,88.52
2022-10-09T23:21:26.286Z,88.22
2022-10-09T23:23:55.123Z,89.94
2022-10-09T23:26:24.900Z,89.54
2022-10-09T23:28:53.791Z,88.77
2022-10-09T23:31:22.605Z,88.76
2022-10-09T23:33:50.565Z,89.18
2022-10-09T23:36:22.483Z,89.19
2022-10-09T23:38:50.618Z,89.45
2022-10-09T23:41:20.067Z,89.96
2022-10-09T23:43:48.511Z,90.70
2022-10-09T23:46:18.462Z,90.91
2022-10-09T23:48:46.670Z,91.17
2022-10-09T23:51:15.790Z,90.90
2022-10-09T23:53:45.180Z,90.31
2022-10-09T23:56:17.014Z,89.97
2022-10-09T23:58:45.542Z,90.66
